• Join FlightAware (Why Join?)
  • Login
  • US Flag 
02:30AM EST


 

Airport Tracker/Info


-or-


 

Live Flight TrackerFlight Track Log ✈ N662US ✈ 12-Jun-2013 ✈ RJAA / NRT - VTBS / BKK

Flight Track Log - Related Links

Times and Time Zones

All times are in EDT time to prevent confusion due to time zone crossing. See the N662US flight status page for this flight to view local times or setup timezone preferences in your user account.

Time Position Orientation Groundspeed Altitude Reporting Facility
EDT Latitude Longitude Course Direction KTS MPH feet Rate Location/Type
06:46AM 35.7194 140.2456 248° West  Level Estimated
06:47AM 35.6739 140.1049 248° West  Level Estimated
06:48AM 35.6282 139.9644 248° West  Level Estimated
06:49AM 35.5823 139.8240 248° West  Level Estimated
06:50AM 35.5363 139.6838 248° West  Level Estimated
06:51AM 35.4902 139.5438 248° West  Level Estimated
06:52AM 35.4439 139.4039 248° West  Level Estimated
06:53AM 35.3974 139.2642 248° West  Level Estimated
06:54AM 35.3507 139.1247 248° West  Level Estimated
06:55AM 35.3039 138.9853 248° West  Level Estimated
06:56AM 35.2569 138.8461 248° West  Level Estimated
06:57AM 35.2098 138.7070 248° West  Level Estimated
06:58AM 35.1625 138.5681 247° West  Level Estimated
06:59AM 35.1151 138.4294 247° West  Level Estimated
06:59AM 35.7910 140.3550 247° West 180 207 1,200  Level FlightAware
06:59AM 35.8020 140.3500 340° North 184 212 1,400 1,440 Climbing FlightAware
06:59AM 35.8260 140.3330 330° Northwest 198 228 2,300 1,500 Climbing FlightAware
07:00AM 35.8660 140.3020 328° Northwest 208 239 3,600 1,320 Climbing FlightAware
07:01AM 35.8790 140.2940 333° Northwest 218 251 3,800 780 Climbing FlightAware
07:01AM 35.9020 140.3020 16° North 233 268 4,100 780 Climbing FlightAware
07:01AM 35.9130 140.3210 54° Northeast 237 273 4,400 1,020 Climbing FlightAware
07:02AM 35.9140 140.3450 87° East 243 280 4,800 2,280 Climbing FlightAware
07:02AM 35.9010 140.3830 113° Southeast 266 306 6,000 3,240 Climbing FlightAware
07:02AM 35.8780 140.4120 134° Southeast 272 313 7,300 2,640 Climbing FlightAware
07:03AM 35.8520 140.4400 139° Southeast 279 321 8,400 2,580 Climbing FlightAware
07:03AM 35.8220 140.4730 138° Southeast 285 328 9,800 2,100 Climbing FlightAware
07:04AM 35.7820 140.5160 139° Southeast 306 352 10,900 1,500 Climbing FlightAware
07:05AM 35.6990 140.6060 139° Southeast 368 423 12,600 1,920 Climbing FlightAware
07:06AM 35.6390 140.6700 139° Southeast 389 448 14,500 2,520 Climbing FlightAware
07:07AM 35.5890 140.7230 139° Southeast 392 451 16,100 2,700 Climbing FlightAware
07:07AM 35.5210 140.7970 138° Southeast 403 464 18,300 2,280 Climbing FlightAware
07:08AM 35.4690 140.8520 139° Southeast 411 473 19,400 1,800 Climbing FlightAware
07:09AM 35.4070 140.9180 139° Southeast 428 493 20,800 2,040 Climbing FlightAware
07:09AM 35.3160 140.9750 153° Southeast 448 516 22,400 1,800 Climbing FlightAware
07:10AM 35.2340 140.9840 175° South 452 520 23,500 1,500 Climbing FlightAware
07:11AM 35.1450 140.9920 176° South 464 534 24,500 1,320 Climbing FlightAware
07:12AM 35.0500 141.0000 176° South 482 555 25,700 1,560 Climbing FlightAware
07:12AM 34.9280 140.9660 193° South 489 563 27,000 1,560 Climbing FlightAware
07:13AM 34.8410 140.9370 195° South 504 580 27,900 1,380 Climbing FlightAware
07:14AM 34.7320 140.9000 196° South 501 577 29,100 1,440 Climbing FlightAware
07:15AM 34.6420 140.8710 195° South 504 580 30,000 1,560 Climbing FlightAware
07:15AM 34.5350 140.8190 202° Southwest 507 583 31,600 1,920 Climbing FlightAware
07:16AM 34.4750 140.7440 226° Southwest 506 582 32,700 1,920 Climbing FlightAware
07:17AM 34.4230 140.6500 236° Southwest 504 580 33,800 1,320 Climbing FlightAware
07:17AM 34.3700 140.5390 240° Southwest 506 582 34,600 1,080 Climbing FlightAware
07:18AM 34.3250 140.4370 242° Southwest 504 580 35,400 960 Climbing FlightAware
07:19AM 34.2760 140.3290 241° Southwest 504 580 36,000 420 Climbing FlightAware
07:19AM 34.2300 140.2280 241° Southwest 505 581 36,000  Level FlightAware
07:21AM 34.1660 140.0900 241° Southwest 504 580 36,000  Level FlightAware
07:21AM 34.1050 139.9600 240° Southwest 504 580 36,000  Level FlightAware
07:22AM 34.0620 139.8670 241° Southwest 503 579 36,000  Level FlightAware
07:23AM 34.0080 139.7460 242° Southwest 504 580 36,000  Level FlightAware
07:23AM 33.9650 139.6520 241° Southwest 506 582 36,000  Level FlightAware
07:24AM 33.9130 139.5410 241° Southwest 508 585 36,000  Level FlightAware
07:25AM 33.8660 139.4370 241° Southwest 508 585 36,000  Level FlightAware
07:25AM 33.8550 139.4150 239° Southwest 508 585 36,000  Level FlightAware
07:26AM 33.7660 139.2210 241° Southwest 505 581 36,000  Level FlightAware
07:27AM 33.7260 139.1350 241° Southwest 506 582 36,000  Level FlightAware
07:28AM 33.6790 139.0340 241° Southwest 505 581 36,000  Level FlightAware
07:28AM 33.6280 138.9260 240° Southwest 502 578 36,000  Level FlightAware
07:29AM 33.5810 138.8230 241° Southwest 503 579 36,000  Level FlightAware
07:30AM 33.5330 138.7230 240° Southwest 504 580 36,000  Level FlightAware
07:30AM 33.4860 138.6220 241° Southwest 505 581 36,000  Level FlightAware
07:31AM 33.4310 138.5050 241° Southwest 507 583 36,000  Level FlightAware
07:32AM 33.3850 138.4110 240° Southwest 508 585 36,000  Level FlightAware
07:33AM 33.3190 138.2710 241° Southwest 507 583 36,000  Level FlightAware
07:33AM 33.2700 138.1650 241° Southwest 505 581 36,000  Level FlightAware
07:34AM 33.2210 138.0650 240° Southwest 503 579 36,000  Level FlightAware
07:35AM 33.1750 137.9680 240° Southwest 502 578 36,000  Level FlightAware
07:36AM 33.1220 137.8590 240° Southwest 502 578 36,000  Level FlightAware
07:36AM 33.0700 137.7500 240° Southwest 502 578 36,000  Level FlightAware
07:37AM 33.0310 137.6710 240° Southwest 502 578 36,000  Level FlightAware
07:38AM 32.9750 137.5550 240° Southwest 504 580 36,000  Level FlightAware
07:38AM 32.9260 137.4530 240° Southwest 504 580 36,000  Level FlightAware
07:39AM 32.8820 137.3640 240° Southwest 503 579 36,000  Level FlightAware
07:40AM 32.8260 137.2480 240° Southwest 501 577 36,000  Level FlightAware
07:40AM 32.7770 137.1500 239° Southwest 500 575 36,000  Level FlightAware
07:41AM 32.7330 137.0590 240° Southwest 500 575 36,000  Level FlightAware
07:42AM 32.6780 136.9490 239° Southwest 505 581 36,000  Level FlightAware
07:42AM 32.6480 136.8850 241° Southwest 500 575 36,000  Level FlightAware
07:43AM 32.6020 136.7920 240° Southwest 500 575 36,000  Level FlightAware
07:44AM 32.5260 136.6420 239° Southwest 498 573 36,000  Level FlightAware
07:45AM 32.4840 136.5590 239° Southwest 503 579 36,000  Level FlightAware
07:45AM 32.4300 136.4500 240° Southwest 504 580 36,000  Level FlightAware
07:46AM 32.3770 136.3430 240° Southwest 504 580 36,000  Level FlightAware
07:47AM 32.3320 136.2530 239° Southwest 504 580 36,000  Level FlightAware
07:47AM 32.2800 136.1510 239° Southwest 505 581 36,000  Level FlightAware
07:48AM 32.2390 136.0700 239° Southwest 506 582 36,000  Level FlightAware
07:49AM 32.2010 135.9950 239° Southwest 506 582 36,000  Level FlightAware
07:50AM 32.1270 135.8500 239° Southwest 505 581 36,000  Level FlightAware
07:50AM 32.0830 135.7650 239° Southwest 504 580 36,000  Level FlightAware
07:51AM 32.0160 135.6310 239° Southwest 503 579 36,000  Level FlightAware
07:52AM 31.9610 135.5250 239° Southwest 501 577 36,000  Level FlightAware
07:53AM 31.9070 135.4200 239° Southwest 502 578 36,000  Level FlightAware
07:53AM 31.8590 135.3260 239° Southwest 502 578 36,000  Level FlightAware
07:54AM 31.8090 135.2320 238° Southwest 502 578 36,000  Level FlightAware
07:55AM 31.7710 135.1610 238° Southwest 502 578 36,000  Level FlightAware
07:55AM 31.7310 135.0860 238° Southwest 502 578 36,000  Level FlightAware
07:56AM 31.6810 134.9910 238° Southwest 502 578 36,000  Level FlightAware
07:57AM 31.6440 134.9210 238° Southwest 502 578 36,000  Level FlightAware
07:57AM 31.5930 134.8260 238° Southwest 502 578 36,000  Level FlightAware
07:58AM 31.5560 134.7550 239° Southwest 502 578 36,000  Level FlightAware
07:59AM 31.5040 134.6590 238° Southwest 502 578 36,000  Level FlightAware
08:00AM 31.4670 134.5890 238° Southwest 502 578 36,000  Level FlightAware
08:00AM 31.4190 134.4980 238° Southwest 502 578 36,000  Level FlightAware
08:01AM 31.3800 134.4260 238° Southwest 502 578 36,000  Level FlightAware
08:02AM 31.3290 134.3300 238° Southwest 502 578 36,000  Level FlightAware
08:02AM 31.2900 134.2570 238° Southwest 502 578 36,000  Level FlightAware
08:03AM 31.2420 134.1670 238° Southwest 502 578 36,000  Level FlightAware
08:06AM 31.1280 133.8417 248° West  Level Estimated
08:07AM 31.0805 133.7074 248° West  Level Estimated
08:08AM 31.0330 133.5731 248° West  Level Estimated
08:09AM 30.9853 133.4390 247° West  Level Estimated
08:10AM 30.9374 133.3051 247° West  Level Estimated
08:11AM 30.8894 133.1712 247° West  Level Estimated
08:12AM 30.8413 133.0376 247° West  Level Estimated
08:13AM 30.7931 132.9040 247° West  Level Estimated
08:14AM 30.7447 132.7706 247° West  Level Estimated
08:15AM 30.6961 132.6373 247° West  Level Estimated
08:16AM 30.6475 132.5041 247° West  Level Estimated
08:17AM 30.5987 132.3711 247° West  Level Estimated
08:18AM 30.5497 132.2382 247° West  Level Estimated
08:19AM 30.5007 132.1055 247° West  Level Estimated
08:20AM 30.4514 131.9729 247° West  Level Estimated
08:21AM 30.4021 131.8404 247° West  Level Estimated
08:22AM 30.3526 131.7080 247° West  Level Estimated
08:23AM 30.3030 131.5758 247° West  Level Estimated
08:24AM 30.2533 131.4437 246° West  Level Estimated
08:25AM 30.2034 131.3118 246° West  Level Estimated
08:26AM 30.1534 131.1799 246° West  Level Estimated
08:27AM 30.1033 131.0483 246° West  Level Estimated
08:28AM 30.0530 130.9167 246° West  Level Estimated
08:29AM 30.0026 130.7853 246° West  Level Estimated
08:30AM 29.9521 130.6540 246° West  Level Estimated
08:31AM 29.9014 130.5229 246° West  Level Estimated
08:32AM 29.8506 130.3918 246° West  Level Estimated
08:33AM 29.7997 130.2610 246° West  Level Estimated
08:34AM 29.7486 130.1302 246° West  Level Estimated
08:35AM 29.6975 129.9996 246° West  Level Estimated
08:36AM 29.6462 129.8691 246° West  Level Estimated
08:37AM 29.5947 129.7388 246° West  Level Estimated
08:38AM 29.5432 129.6086 246° West  Level Estimated
08:39AM 29.4915 129.4785 245° Southwest  Level Estimated
08:40AM 29.4397 129.3485 245° Southwest  Level Estimated
08:41AM 29.3878 129.2187 245° Southwest  Level Estimated
08:42AM 29.3357 129.0890 245° Southwest  Level Estimated
08:42AM 27.8550 128.8990 245° Southwest 499 574 36,000  Level FlightAware
08:43AM 29.2835 128.9595 245° Southwest  Level Estimated
08:44AM 29.2312 128.8301 245° Southwest  Level Estimated
08:44AM 27.7320 128.7360 230° Southwest 500 575 36,000  Level FlightAware
08:46AM 27.6370 128.6110 229° Southwest 501 577 36,000  Level FlightAware
08:46AM 27.4930 128.4230 229° Southwest 503 579 36,000  Level FlightAware
08:47AM 27.4030 128.3030 230° Southwest 504 580 36,000  Level FlightAware
08:48AM 27.3390 128.2190 229° Southwest 506 582 36,000  Level FlightAware
08:49AM 27.2690 128.1300 229° Southwest 507 583 36,000  Level FlightAware
08:50AM 27.1940 128.0320 229° Southwest 507 583 36,000  Level FlightAware
08:51AM 27.0640 127.8630 229° Southwest 508 585 36,000  Level FlightAware
08:52AM 27.0010 127.7830 229° Southwest 508 585 36,000  Level FlightAware
08:52AM 26.9430 127.7070 229° Southwest 508 585 36,000  Level FlightAware
08:53AM 26.8690 127.6120 229° Southwest 509 586 36,000  Level FlightAware
08:54AM 26.8000 127.5220 229° Southwest 510 587 36,000  Level FlightAware
08:55AM 26.7390 127.4450 228° Southwest 509 586 36,000  Level FlightAware
08:56AM 26.6540 127.3360 229° Southwest 508 585 36,000  Level FlightAware
08:56AM 26.5910 127.2550 229° Southwest 507 583 36,000  Level FlightAware
08:57AM 26.5220 127.1680 228° Southwest 507 583 36,000  Level FlightAware
08:58AM 26.4530 127.0800 229° Southwest 507 583 36,000  Level FlightAware
08:58AM 26.3910 127.0010 229° Southwest 506 582 36,000  Level FlightAware
08:59AM 26.3280 126.9230 228° Southwest 505 581 36,000  Level FlightAware
09:00AM 26.2580 126.8330 229° Southwest 505 581 36,000  Level FlightAware
09:00AM 26.2050 126.7660 229° Southwest 505 581 36,000  Level FlightAware
09:01AM 26.1430 126.6880 228° Southwest 505 581 36,000  Level FlightAware
09:02AM 26.0750 126.6030 228° Southwest 505 581 36,000  Level FlightAware
09:03AM 26.0130 126.5230 229° Southwest 505 581 36,000  Level FlightAware
09:03AM 25.9510 126.4470 228° Southwest 504 580 36,000  Level FlightAware
09:04AM 25.8430 126.3110 229° Southwest 504 580 36,000  Level FlightAware
09:05AM 25.7940 126.2480 229° Southwest 504 580 36,000  Level FlightAware
09:06AM 25.7430 126.1830 229° Southwest 504 580 36,000  Level FlightAware
09:07AM 25.6800 126.1030 229° Southwest 504 580 36,000  Level FlightAware
09:07AM 25.6380 126.0490 229° Southwest 504 580 36,000  Level FlightAware
09:08AM 25.5740 125.9670 229° Southwest 504 580 36,000  Level FlightAware
09:08AM 25.5270 125.9080 229° Southwest 504 580 36,000  Level FlightAware
09:09AM 25.4660 125.8300 229° Southwest 504 580 36,000  Level FlightAware
09:10AM 25.4190 125.7700 229° Southwest 504 580 36,000  Level FlightAware
09:11AM 25.2950 125.6130 229° Southwest 504 580 36,000  Level FlightAware
09:12AM 25.2490 125.5530 230° Southwest 504 580 36,000  Level FlightAware
09:13AM 25.1970 125.4870 229° Southwest 504 580 36,000  Level FlightAware
09:14AM 25.1340 125.4080 229° Southwest 504 580 36,000  Level FlightAware
09:16AM 25.0427 125.1548 248° West  Level Estimated
09:17AM 24.9965 125.0273 248° West  Level Estimated
09:18AM 24.9503 124.8999 248° West  Level Estimated
09:19AM 24.9039 124.7725 248° West  Level Estimated
09:20AM 24.8573 124.6453 248° West  Level Estimated
09:21AM 24.8107 124.5182 248° West  Level Estimated
09:22AM 24.7640 124.3911 248° West  Level Estimated
09:23AM 24.7172 124.2642 248° West  Level Estimated
09:24AM 24.6702 124.1373 248° West  Level Estimated
09:25AM 24.6232 124.0106 248° West  Level Estimated
09:26AM 24.5761 123.8839 248° West  Level Estimated
09:27AM 24.5288 123.7574 248° West  Level Estimated
09:28AM 24.4814 123.6309 248° West  Level Estimated
09:29AM 24.4340 123.5045 248° West  Level Estimated
09:30AM 24.3864 123.3782 248° West  Level Estimated
09:31AM 24.3388 123.2521 247° West  Level Estimated
09:32AM 24.2910 123.1260 247° West  Level Estimated
09:33AM 24.2431 123.0000 247° West  Level Estimated
09:34AM 24.1951 122.8741 247° West  Level Estimated
09:35AM 24.1470 122.7483 247° West  Level Estimated
09:36AM 24.0988 122.6226 247° West  Level Estimated
09:37AM 24.0505 122.4970 247° West  Level Estimated
09:37AM 22.9570 122.4280 247° West 502 578 36,000  Level FlightAware
09:38AM 22.9040 122.3450 235° Southwest 502 578 36,000  Level FlightAware
09:38AM 22.8460 122.2520 236° Southwest 501 577 36,000  Level FlightAware
09:39AM 22.7930 122.1740 234° Southwest 501 577 36,000  Level FlightAware
09:40AM 22.7400 122.0890 236° Southwest 500 575 36,000  Level FlightAware
09:40AM 22.6830 122.0010 235° Southwest 499 574 36,000  Level FlightAware
09:41AM 22.6250 121.9110 235° Southwest 499 574 36,000  Level FlightAware
09:42AM 22.5750 121.8330 235° Southwest 498 573 36,000  Level FlightAware
09:42AM 22.5280 121.7620 234° Southwest 499 574 36,000  Level FlightAware
09:43AM 22.4750 121.6800 235° Southwest 499 574 36,000  Level FlightAware
09:44AM 22.4240 121.6020 235° Southwest 499 574 36,000  Level FlightAware
09:44AM 22.3600 121.5020 235° Southwest 497 572 36,000  Level FlightAware
09:45AM 22.3290 121.4560 234° Southwest 497 572 36,000  Level FlightAware
09:46AM 22.2910 121.3990 234° Southwest 498 573 36,000  Level FlightAware
09:47AM 22.1970 121.2540 235° Southwest 498 573 36,000  Level FlightAware
09:47AM 22.1370 121.1630 235° Southwest 498 573 36,000  Level FlightAware
09:48AM 22.0830 121.0800 235° Southwest 496 571 36,000  Level FlightAware
09:49AM 22.0270 120.9950 235° Southwest 496 571 36,000  Level FlightAware
09:49AM 21.9780 120.9200 235° Southwest 498 573 36,000  Level FlightAware
09:50AM 21.9290 120.8310 239° Southwest 497 572 36,000  Level FlightAware
09:51AM 21.9020 120.7310 254° West 496 571 36,000  Level FlightAware
09:51AM 21.8810 120.6330 257° West 497 572 36,000  Level FlightAware
09:52AM 21.8610 120.5360 257° West 497 572 36,000  Level FlightAware
09:53AM 21.8380 120.4300 257° West 497 572 36,000  Level FlightAware
09:53AM 21.8160 120.3320 256° West 496 571 36,000  Level FlightAware
09:54AM 21.7930 120.2280 257° West 496 571 36,000  Level FlightAware
09:55AM 21.7650 120.0990 257° West 496 571 36,000  Level FlightAware
09:56AM 21.7340 119.9570 257° West 492 566 36,000 -180 Level FlightAware
09:57AM 21.7140 119.8640 257° West 492 566 35,800 -480 Descending FlightAware
09:57AM 21.6930 119.7660 257° West 500 575 35,400 -660 Descending FlightAware
09:58AM 21.6720 119.6640 258° West 495 570 34,900 -720 Descending FlightAware
09:59AM 21.6500 119.5610 257° West 494 568 34,400 -660 Descending FlightAware
10:00AM 21.6280 119.4610 257° West 496 571 34,000 -300 Descending FlightAware
10:00AM 21.6080 119.3670 257° West 496 571 34,000  Level FlightAware
10:01AM 21.5870 119.2670 257° West 491 565 34,000  Level FlightAware
10:01AM 21.5740 119.2050 257° West 489 563 34,000  Level FlightAware
10:02AM 21.5510 119.0980 257° West 491 565 34,000  Level FlightAware
10:03AM 21.5300 119.0010 257° West 494 568 34,000  Level FlightAware
10:03AM 21.5060 118.8900 257° West 494 568 34,000  Level FlightAware
10:04AM 21.4760 118.7540 257° West 497 572 34,000  Level FlightAware
10:05AM 21.4460 118.6140 257° West 497 572 34,000  Level FlightAware
10:06AM 21.4290 118.5370 257° West 496 571 34,000  Level FlightAware
10:07AM 21.4060 118.4340 257° West 497 572 34,000  Level FlightAware
10:07AM 21.3870 118.3530 256° West 497 572 34,000  Level FlightAware
10:08AM 21.3650 118.2570 256° West 497 572 34,000  Level FlightAware
10:09AM 21.3200 118.0960 253° West 498 573 34,000  Level FlightAware
10:10AM 21.2920 117.9860 255° West 498 573 34,000  Level FlightAware
10:10AM 21.2760 117.9260 254° West 498 573 34,000  Level FlightAware
10:11AM 21.2420 117.7970 254° West 498 573 34,000  Level FlightAware
10:12AM 21.2090 117.6750 254° West 498 573 34,000  Level FlightAware
10:13AM 21.1910 117.6070 254° West 498 573 34,000  Level FlightAware
10:14AM 21.1640 117.5080 254° West 498 573 34,000  Level FlightAware
10:14AM 21.1450 117.4350 254° West 498 573 34,000  Level FlightAware
10:15AM 21.1150 117.3240 254° West 498 573 34,000  Level FlightAware
10:16AM 21.0870 117.2190 254° West 498 573 34,000  Level FlightAware
10:17AM 21.0670 117.1430 254° West 498 573 34,000  Level FlightAware
10:17AM 21.0470 117.0680 254° West 498 573 34,000  Level FlightAware
10:18AM 21.0200 116.9690 254° West 498 573 34,000  Level FlightAware
10:19AM 21.0010 116.8970 254° West 498 573 34,000  Level FlightAware
10:20AM 20.9740 116.7980 254° West 498 573 34,000  Level FlightAware
10:22AM 20.8803 116.5608 247° West  Level Estimated
10:23AM 20.8317 116.4382 247° West  Level Estimated
10:24AM 20.7830 116.3157 247° West  Level Estimated
10:25AM 20.7342 116.1932 247° West  Level Estimated
10:26AM 20.6854 116.0709 247° West  Level Estimated
10:27AM 20.6364 115.9486 247° West  Level Estimated
10:28AM 20.5874 115.8264 247° West  Level Estimated
10:29AM 20.5383 115.7043 247° West  Level Estimated
10:30AM 20.4891 115.5823 247° West  Level Estimated
10:31AM 20.4398 115.4603 247° West  Level Estimated
10:32AM 20.3904 115.3384 247° West  Level Estimated
10:33AM 20.3409 115.2166 247° West  Level Estimated
10:34AM 20.2914 115.0949 247° West  Level Estimated
10:35AM 20.2418 114.9733 247° West  Level Estimated
10:36AM 20.1921 114.8517 246° West  Level Estimated
10:37AM 20.1423 114.7302 246° West  Level Estimated
10:38AM 20.0924 114.6088 246° West  Level Estimated
10:39AM 20.0424 114.4875 246° West  Level Estimated
10:40AM 19.9924 114.3662 246° West  Level Estimated
10:41AM 19.9422 114.2450 246° West  Level Estimated
10:42AM 19.8920 114.1239 246° West  Level Estimated
10:43AM 19.8417 114.0029 246° West  Level Estimated
10:44AM 19.7914 113.8819 246° West  Level Estimated
10:45AM 19.7409 113.7611 246° West  Level Estimated
10:46AM 19.6904 113.6403 246° West  Level Estimated
10:47AM 19.6398 113.5195 246° West  Level Estimated
10:48AM 19.5891 113.3989 246° West  Level Estimated
10:49AM 19.5383 113.2783 246° West  Level Estimated
10:50AM 19.4874 113.1578 246° West  Level Estimated
10:51AM 19.4365 113.0374 246° West  Level Estimated
10:52AM 19.3855 112.9171 246° West  Level Estimated
10:53AM 19.3344 112.7968 246° West  Level Estimated
10:54AM 19.2832 112.6766 246° West  Level Estimated
10:55AM 19.2320 112.5565 246° West  Level Estimated
10:56AM 19.1807 112.4365 246° West  Level Estimated
10:57AM 19.1292 112.3165 246° West  Level Estimated
10:58AM 19.0777 112.1966 246° West  Level Estimated
10:59AM 19.0262 112.0768 246° West  Level Estimated
11:00AM 18.9746 111.9570 246° West  Level Estimated
11:01AM 18.9228 111.8374 245° Southwest  Level Estimated
11:02AM 18.8710 111.7178 245° Southwest  Level Estimated
11:03AM 18.8192 111.5983 245° Southwest  Level Estimated
11:04AM 18.7672 111.4788 245° Southwest  Level Estimated
11:05AM 18.7152 111.3594 245° Southwest  Level Estimated
11:06AM 18.6631 111.2401 245° Southwest  Level Estimated
11:07AM 18.6109 111.1209 245° Southwest  Level Estimated
11:08AM 18.5587 111.0018 245° Southwest  Level Estimated
11:09AM 18.5064 110.8827 245° Southwest  Level Estimated
11:10AM 18.4540 110.7637 245° Southwest  Level Estimated
11:11AM 18.4015 110.6447 245° Southwest  Level Estimated
11:12AM 18.3489 110.5259 245° Southwest  Level Estimated
11:13AM 18.2963 110.4071 245° Southwest  Level Estimated
11:14AM 18.2436 110.2884 245° Southwest  Level Estimated
11:15AM 18.1909 110.1697 245° Southwest  Level Estimated
11:16AM 18.1380 110.0511 245° Southwest  Level Estimated
11:17AM 18.0851 109.9326 245° Southwest  Level Estimated
11:18AM 18.0322 109.8142 245° Southwest  Level Estimated
11:19AM 17.9791 109.6959 245° Southwest  Level Estimated
11:20AM 17.9260 109.5776 245° Southwest  Level Estimated
11:21AM 17.8728 109.4594 245° Southwest  Level Estimated
11:22AM 17.8195 109.3412 245° Southwest  Level Estimated
11:23AM 17.7662 109.2231 245° Southwest  Level Estimated
11:24AM 17.7127 109.1051 245° Southwest  Level Estimated
11:25AM 17.6593 108.9872 245° Southwest  Level Estimated
11:26AM 17.6057 108.8693 245° Southwest  Level Estimated
11:27AM 17.5521 108.7515 244° Southwest  Level Estimated
11:28AM 17.4984 108.6338 244° Southwest  Level Estimated
11:29AM 17.4447 108.5161 244° Southwest  Level Estimated
11:30AM 17.3908 108.3986 244° Southwest  Level Estimated
11:31AM 17.3369 108.2810 244° Southwest  Level Estimated
11:32AM 17.2829 108.1636 244° Southwest  Level Estimated
11:33AM 17.2289 108.0462 244° Southwest  Level Estimated
11:34AM 17.1748 107.9289 244° Southwest  Level Estimated
11:35AM 17.1206 107.8117 244° Southwest  Level Estimated
11:36AM 17.0664 107.6945 244° Southwest  Level Estimated
11:37AM 17.0121 107.5774 244° Southwest  Level Estimated
11:38AM 16.9577 107.4603 244° Southwest  Level Estimated
11:38AM 15.6870 106.8180 244° Southwest 492 566 38,000  Level FlightAware
11:39AM 16.9033 107.3434 244° Southwest  Level Estimated
11:39AM 15.6710 106.7450 257° West 492 566 38,000  Level FlightAware
11:40AM 15.6440 106.6190 257° West 494 568 38,000  Level FlightAware
11:41AM 15.6170 106.4990 257° West 494 568 38,000  Level FlightAware
11:42AM 15.5960 106.3990 258° West 496 571 38,000  Level FlightAware
11:42AM 15.5770 106.3120 257° West 496 571 38,000  Level FlightAware
11:43AM 15.5470 106.1750 257° West 498 573 38,000  Level FlightAware
11:44AM 15.5300 106.1020 256° West 498 573 38,000  Level FlightAware
11:44AM 15.5040 105.9810 257° West 499 574 38,000  Level FlightAware
11:45AM 15.4840 105.8920 257° West 499 574 38,000  Level FlightAware
11:46AM 15.4580 105.7770 257° West 499 574 38,000  Level FlightAware
11:47AM 15.4420 105.7010 258° West 499 574 38,000  Level FlightAware
11:48AM 15.4200 105.6040 257° West 499 574 38,000  Level FlightAware
11:48AM 15.4040 105.5310 257° West 499 574 38,000  Level FlightAware
11:51AM 15.3058 105.2486 250° West  Level Estimated
11:52AM 15.2636 105.1276 250° West  Level Estimated
11:52AM 15.3140 105.1280 250° West 499 574 38,000  Level FlightAware
11:53AM 15.2820 104.9860 257° West 499 574 38,000  Level FlightAware
11:54AM 15.2620 104.8940 257° West 499 574 38,000  Level FlightAware
11:56AM 15.1741 104.6566 249° West  Level Estimated
11:57AM 15.1297 104.5370 249° West  Level Estimated
11:58AM 15.0852 104.4174 249° West  Level Estimated
11:59AM 15.0407 104.2979 249° West  Level Estimated
12:00PM 14.9961 104.1785 249° West  Level Estimated
12:01PM 14.9514 104.0591 249° West  Level Estimated
12:02PM 14.9067 103.9397 249° West  Level Estimated
12:03PM 14.8619 103.8204 249° West  Level Estimated
12:04PM 14.8170 103.7011 249° West  Level Estimated
12:04PM 15.0380 103.1610 249° West 500 575 38,000  Level FlightAware
12:05PM 14.7721 103.5819 249° West  Level Estimated
12:05PM 15.0220 103.0310 263° West 500 575 38,000  Level FlightAware
12:06PM 15.0100 102.9310 263° West 501 577 38,000  Level FlightAware
12:07PM 14.9960 102.8110 263° West 501 577 38,000  Level FlightAware
12:08PM 14.9830 102.6950 263° West 502 578 38,000  Level FlightAware
12:09PM 14.9690 102.5740 263° West 503 579 38,000  Level FlightAware
12:09PM 14.9550 102.4560 263° West 504 580 38,000  Level FlightAware
12:10PM 14.9430 102.3560 263° West 503 579 38,000  Level FlightAware
12:11PM 14.9340 102.2780 263° West 502 578 38,000  Level FlightAware
12:11PM 14.9310 102.2530 263° West 501 577 38,000  Level FlightAware
12:12PM 14.9200 102.1660 263° West 501 577 38,000  Level FlightAware
12:12PM 14.9120 102.0920 264° West 501 577 38,000  Level FlightAware
12:13PM 14.9000 101.9920 263° West 501 577 38,000 -2,640 Level FlightAware
12:14PM 14.7360 101.8660 217° Southwest 33,600 -3,960 Descending FlightAware
12:15PM 14.6620 101.7540 236° Southwest 468 539 31,600 -2,280 Descending FlightAware
12:16PM 14.6190 101.6880 236° Southwest 457 526 30,200 -2,400 Descending FlightAware
12:16PM 14.5670 101.5970 239° Southwest 444 511 28,200 -2,580 Descending FlightAware
12:17PM 14.5280 101.5210 242° Southwest 434 499 26,400 -2,520 Descending FlightAware
12:18PM 14.4930 101.4570 241° Southwest 419 482 25,000 -2,160 Descending FlightAware
12:18PM 14.4550 101.3840 242° Southwest 408 470 23,500 -1,980 Descending FlightAware
12:19PM 14.4210 101.3200 241° Southwest 397 457 22,200 -2,400 Descending FlightAware
12:20PM 14.3690 101.2220 241° Southwest 388 447 20,100 -1,980 Descending FlightAware
12:21PM 14.3340 101.1570 241° Southwest 388 447 19,300 -1,200 Descending FlightAware
12:21PM 14.2980 101.1160 228° Southwest 384 442 18,700 -1,020 Descending FlightAware
12:22PM 14.2430 101.0830 210° Southwest 375 432 18,200 -960 Descending FlightAware
12:22PM 14.1750 101.0440 209° Southwest 352 405 17,400 -1,140 Descending FlightAware
12:23PM 14.1120 101.0100 208° Southwest 352 405 16,500 -1,140 Descending FlightAware
12:24PM 14.0510 100.9750 209° Southwest 360 414 15,800 -1,020 Descending FlightAware
12:24PM 13.9940 100.9460 206° Southwest 342 394 15,200 -1,080 Descending FlightAware
12:25PM 13.9060 100.9510 177° South 317 365 14,100 -780 Descending FlightAware
12:26PM 13.8520 100.9710 160° South 284 327 14,000 -120 Descending FlightAware
12:27PM 13.7950 100.9760 175° South 279 321 14,000 -600 Level FlightAware
12:28PM 13.7460 100.9660 191° South 269 310 13,200 -1,380 Descending FlightAware
12:28PM 13.6920 100.9470 199° South 266 306 12,100 -1,440 Descending FlightAware
12:29PM 13.6470 100.9310 199° South 265 305 11,200 -1,380 Descending FlightAware
12:30PM 13.5940 100.9130 198° South 262 302 10,200 -1,440 Descending FlightAware
12:30PM 13.5720 100.9050 199° South 260 299 9,700 -1,500 Descending FlightAware
12:30PM 13.5490 100.8970 199° South 257 296 9,200 -1,680 Descending FlightAware
12:31PM 13.5160 100.8860 198° South 254 292 8,400 -1,860 Descending FlightAware
12:31PM 13.4870 100.8750 200° South 252 290 7,500 -1,380 Descending FlightAware
12:32PM 13.4570 100.8640 200° South 230 265 7,100 -960 Descending FlightAware
12:32PM 13.4360 100.8450 221° Southwest 210 242 6,600 -1,200 Descending FlightAware
12:32PM 13.4350 100.8330 265° West 213 245 6,300 -1,500 Descending FlightAware
12:33PM 13.4360 100.8050 272° West 208 239 5,600 -1,500 Descending FlightAware
12:33PM 13.4390 100.7930 284° West 211 243 5,300 -1,380 Descending FlightAware
12:34PM 13.4540 100.7670 301° West 209 241 4,600 -1,440 Descending FlightAware
12:34PM 13.4670 100.7450 301° West 206 237 4,000 -1,500 Descending FlightAware
12:35PM 13.4870 100.7230 313° West 209 241 3,200 -1,500 Descending FlightAware
12:35PM 13.5110 100.7140 340° North 204 235 2,600 -1,020 Descending FlightAware
12:36PM 13.5420 100.7030 341° North 186 214 2,200 -420 Descending FlightAware
12:36PM 13.5790 100.7100 10° North 177 204 2,100 -540 Descending FlightAware
12:37PM 13.6020 100.7170 16° North 167 192 1,600 -960 Descending FlightAware
12:37PM 13.6190 100.7210 13° North 153 176 1,300 -720 Descending FlightAware
12:38PM 13.6430 100.7270 14° North 153 176 800 -480 Descending FlightAware
12:39PM 13.6660 100.7330 14° North 153 176 700 -180 Descending FlightAware